Time;durP1;ratioP1;P1;durP2;ratioP2;P2;SDS_P1;SDS_P2;PMS_P1;PMS_P2;Temp;Humidity;BMP_temperature;BMP_pressure;BME280_temperature;BME280_humidity;BME280_pressure;Samples;Min_cycle;Max_cycle;Signal;HPM_P1;HPM_P2
2021/07/25 00:01:43;;;;;;;16.30;12.10;;;;;;;19.93;62.18;99995.33;153928;1101;103228;-73
2021/07/25 00:04:48;;;;;;;14.33;12.25;;;;;;;19.85;62.20;99990.19;154001;1094;103272;-74
2021/07/25 00:07:53;;;;;;;13.57;11.30;;;;;;;19.74;62.44;99978.19;153976;1101;103156;-73
2021/07/25 00:10:59;;;;;;;15.47;11.03;;;;;;;19.70;62.26;99974.23;153938;1096;103256;-73
2021/07/25 00:14:04;;;;;;;13.90;11.45;;;;;;;19.67;62.30;99979.25;153956;1096;103164;-73
2021/07/25 00:17:09;;;;;;;14.43;12.13;;;;;;;19.62;62.51;99969.91;153938;1101;103154;-72
2021/07/25 00:20:16;;;;;;;13.98;11.78;;;;;;;19.58;62.55;99970.59;153942;1096;103291;-74
2021/07/25 00:23:22;;;;;;;13.40;11.85;;;;;;;19.52;62.71;99961.47;154045;1101;103233;-73
2021/07/25 00:26:33;;;;;;;16.27;12.27;;;;;;;19.46;62.51;99967.76;153968;1096;103223;-73
2021/07/25 00:29:38;;;;;;;17.43;12.83;;;;;;;19.37;62.55;99964.47;153912;1101;103139;-75
2021/07/25 00:32:43;;;;;;;14.93;12.67;;;;;;;19.31;62.75;99961.82;153961;1096;103554;-75
2021/07/25 00:35:48;;;;;;;14.47;12.30;;;;;;;19.23;62.84;99960.20;153941;1101;103204;-74
2021/07/25 00:38:53;;;;;;;13.80;11.20;;;;;;;19.17;62.98;99959.19;153984;1101;103382;-75
2021/07/25 00:41:58;;;;;;;13.23;10.80;;;;;;;19.15;63.04;99955.02;153894;1101;103233;-74
2021/07/25 00:45:04;;;;;;;13.53;11.03;;;;;;;19.13;63.09;99955.27;153975;1101;103192;-73
2021/07/25 00:48:09;;;;;;;16.28;12.08;;;;;;;19.13;63.18;99952.56;153964;1096;103144;-73
2021/07/25 00:51:14;;;;;;;14.43;11.90;;;;;;;19.10;63.10;99944.87;153950;1101;103286;-73
2021/07/25 00:54:20;;;;;;;13.63;11.93;;;;;;;19.04;63.13;99940.33;153960;1101;103129;-73
2021/07/25 00:57:25;;;;;;;15.53;12.70;;;;;;;19.00;63.24;99949.92;153978;1101;103490;-73
2021/07/25 01:00:31;;;;;;;14.70;12.10;;;;;;;18.94;63.32;99945.39;153960;1101;103144;-73
2021/07/25 01:03:54;;;;;;;15.70;13.07;;;;;;;18.80;63.43;99945.45;153955;1101;103257;-73
2021/07/25 01:07:12;;;;;;;16.55;12.05;;;;;;;18.73;63.36;99935.67;153915;1101;103246;-73
2021/07/25 01:10:22;;;;;;;14.50;11.03;;;;;;;18.66;63.57;99932.98;153969;1101;103208;-73
2021/07/25 01:13:31;;;;;;;12.53;10.93;;;;;;;18.62;63.59;99931.76;153961;1101;103193;-74
2021/07/25 01:16:36;;;;;;;13.70;11.35;;;;;;;18.58;63.62;99935.94;153982;1101;103128;-74
2021/07/25 01:19:41;;;;;;;12.43;11.13;;;;;;;18.57;63.60;99934.26;153970;1095;103224;-74
2021/07/25 01:22:48;;;;;;;15.10;11.98;;;;;;;18.52;63.58;99936.80;153964;1101;103206;-77
2021/07/25 01:25:58;;;;;;;15.33;12.17;;;;;;;18.45;63.46;99937.61;154074;1101;103113;-76
2021/07/25 01:29:05;;;;;;;14.37;12.40;;;;;;;18.38;63.76;99927.88;153952;1095;103271;-76
2021/07/25 01:32:12;;;;;;;13.78;11.85;;;;;;;18.32;63.83;99924.17;153984;1101;103067;-76
2021/07/25 01:35:18;;;;;;;13.97;11.70;;;;;;;18.30;64.02;99928.93;153964;1101;103490;-75
2021/07/25 01:38:25;;;;;;;15.77;13.13;;;;;;;18.24;63.82;99927.09;154024;1101;103298;-75
2021/07/25 01:41:30;;;;;;;13.90;12.13;;;;;;;18.17;63.75;99927.11;153997;1101;103199;-75
2021/07/25 01:44:35;;;;;;;14.65;11.75;;;;;;;18.11;63.84;99927.96;153914;1101;103199;-74
2021/07/25 01:47:41;;;;;;;12.70;10.33;;;;;;;18.05;63.92;99918.83;153951;1101;103199;-73
2021/07/25 01:50:46;;;;;;;13.67;11.73;;;;;;;18.04;63.98;99917.16;154019;1101;103131;-75
2021/07/25 01:53:51;;;;;;;14.25;11.60;;;;;;;18.03;64.16;99920.06;153950;1096;103257;-73
2021/07/25 01:56:56;;;;;;;13.90;12.07;;;;;;;18.01;64.10;99914.05;153949;1096;103121;-74
2021/07/25 02:00:01;;;;;;;14.97;11.80;;;;;;;17.94;64.05;99914.06;153986;1096;103179;-74
2021/07/25 02:03:06;;;;;;;16.30;12.20;;;;;;;17.92;64.11;99904.50;153927;1096;103195;-74
2021/07/25 02:06:11;;;;;;;15.35;12.58;;;;;;;17.85;64.14;99896.42;153995;1096;103553;-73
2021/07/25 02:09:16;;;;;;;14.68;12.68;;;;;;;17.80;64.09;99902.43;153929;1096;103257;-72
2021/07/25 02:12:21;;;;;;;13.70;12.10;;;;;;;17.74;64.17;99902.42;153973;1101;103099;-73
2021/07/25 02:15:26;;;;;;;14.53;12.53;;;;;;;17.68;64.28;99903.26;153900;1101;103150;-74
2021/07/25 02:18:31;;;;;;;14.60;11.43;;;;;;;17.65;64.11;99910.73;153942;1096;103152;-74
2021/07/25 02:21:36;;;;;;;12.03;10.08;;;;;;;17.62;64.07;99905.73;153928;1101;103582;-74
2021/07/25 02:24:41;;;;;;;14.27;11.23;;;;;;;17.62;64.30;99910.31;153942;1101;103115;-73
2021/07/25 02:27:46;;;;;;;12.63;11.18;;;;;;;17.62;64.38;99899.52;153942;1101;103947;-73
2021/07/25 02:30:51;;;;;;;13.60;11.70;;;;;;;17.61;64.21;99914.89;153929;1096;103195;-72
2021/07/25 02:33:56;;;;;;;14.97;12.33;;;;;;;17.58;64.15;99909.07;153973;1101;103246;-72
2021/07/25 02:37:01;;;;;;;14.78;12.38;;;;;;;17.55;64.42;99904.08;153963;1101;103234;-74
2021/07/25 02:40:09;;;;;;;14.48;12.30;;;;;;;17.52;64.19;99905.34;154016;1096;103295;-75
2021/07/25 02:43:14;;;;;;;15.13;11.40;;;;;;;17.47;64.30;99902.41;154045;1096;103233;-75
2021/07/25 02:46:19;;;;;;;14.47;12.03;;;;;;;17.42;64.24;99899.53;153978;1101;103119;-75
2021/07/25 02:49:24;;;;;;;13.37;11.93;;;;;;;17.40;64.37;99901.61;154021;1096;103219;-76
2021/07/25 02:52:29;;;;;;;13.50;10.83;;;;;;;17.36;64.55;99905.73;154069;1096;103118;-73
2021/07/25 02:55:34;;;;;;;13.33;10.08;;;;;;;17.35;64.26;99921.08;153973;1101;103508;-74
2021/07/25 02:58:39;;;;;;;13.03;10.75;;;;;;;17.36;64.33;99921.91;153957;1101;103237;-73
2021/07/25 03:01:45;;;;;;;14.70;11.60;;;;;;;17.36;64.18;99922.76;153956;1101;103155;-73
2021/07/25 03:04:50;;;;;;;15.23;12.03;;;;;;;17.38;64.62;99914.44;153958;1096;103197;-73
2021/07/25 03:07:55;;;;;;;12.80;11.18;;;;;;;17.39;64.48;99918.81;153939;1101;103139;-73
2021/07/25 03:11:01;;;;;;;15.83;11.58;;;;;;;17.37;64.40;99918.19;153974;1101;103283;-74
2021/07/25 03:14:07;;;;;;;13.45;11.63;;;;;;;17.33;64.61;99923.16;153990;1101;103153;-72
2021/07/25 03:17:12;;;;;;;13.60;11.48;;;;;;;17.31;64.55;99935.20;153985;1101;103193;-72
2021/07/25 03:20:17;;;;;;;14.07;11.87;;;;;;;17.29;64.62;99932.70;153932;1101;103198;-72
2021/07/25 03:23:22;;;;;;;13.50;11.60;;;;;;;17.29;64.58;99937.27;153957;1095;103218;-73
2021/07/25 03:26:27;;;;;;;13.53;10.93;;;;;;;17.26;64.71;99933.09;153968;1101;103294;-72
2021/07/25 03:29:32;;;;;;;12.65;10.18;;;;;;;17.32;64.59;99937.70;153949;1101;103127;-72
2021/07/25 03:32:38;;;;;;;13.13;11.18;;;;;;;17.39;64.69;99935.81;153930;1101;103199;-72
2021/07/25 03:35:43;;;;;;;13.33;11.53;;;;;;;17.43;64.47;99936.23;153924;1101;103440;-73
2021/07/25 03:38:48;;;;;;;14.35;11.85;;;;;;;17.49;64.65;99930.02;153972;1101;103244;-72
2021/07/25 03:41:53;;;;;;;14.23;12.03;;;;;;;17.53;64.88;99939.34;154054;1101;103228;-71
2021/07/25 03:44:58;;;;;;;12.98;11.58;;;;;;;17.63;64.81;99934.39;153982;1101;103522;-72
2021/07/25 03:48:03;;;;;;;15.25;11.98;;;;;;;17.71;64.85;99941.45;153954;1101;103196;-73
2021/07/25 03:51:08;;;;;;;16.03;11.65;;;;;;;17.75;64.55;99941.88;153958;1096;103200;-72
2021/07/25 03:54:14;;;;;;;14.97;12.03;;;;;;;17.84;64.89;99946.03;154007;1096;103187;-72
2021/07/25 03:57:19;;;;;;;12.40;10.63;;;;;;;17.99;64.73;99938.55;153908;1101;103609;-73
2021/07/25 04:00:24;;;;;;;14.97;10.70;;;;;;;18.22;64.66;99940.80;153991;1096;103105;-74
2021/07/25 04:03:29;;;;;;;12.33;10.28;;;;;;;18.43;64.69;99939.70;153950;1096;103227;-74
2021/07/25 04:06:34;;;;;;;13.60;11.50;;;;;;;18.67;64.41;99937.36;154031;1096;103211;-73
2021/07/25 04:09:39;;;;;;;14.33;11.47;;;;;;;18.89;64.59;99937.91;153920;1096;103224;-74
2021/07/25 04:12:44;;;;;;;14.70;11.87;;;;;;;19.11;64.56;99934.88;153964;1096;103355;-73
2021/07/25 04:15:49;;;;;;;13.93;12.40;;;;;;;19.31;64.50;99934.77;154104;1101;103131;-74
2021/07/25 04:18:54;;;;;;;14.40;12.35;;;;;;;19.54;64.40;99928.78;153967;1095;103103;-72
2021/07/25 04:21:59;;;;;;;17.78;12.60;;;;;;;19.74;64.23;99928.64;153982;1096;103166;-74
2021/07/25 04:25:05;;;;;;;15.03;13.13;;;;;;;19.93;64.39;99933.05;153993;1095;103094;-73
2021/07/25 04:28:11;;;;;;;13.88;11.85;;;;;;;20.10;64.55;99940.61;154040;1101;103218;-72
2021/07/25 04:31:17;;;;;;;14.33;12.05;;;;;;;20.31;64.54;99929.34;153976;1096;103195;-75
2021/07/25 04:34:24;;;;;;;13.18;11.50;;;;;;;20.55;64.27;99932.19;153978;1101;103106;-73
2021/07/25 04:37:30;;;;;;;13.73;12.07;;;;;;;20.77;64.25;99930.70;153948;1101;103196;-75
2021/07/25 04:40:39;;;;;;;14.70;12.73;;;;;;;20.98;63.79;99928.56;153991;1101;103224;-70
2021/07/25 04:43:45;;;;;;;14.25;12.13;;;;;;;21.17;64.05;99932.03;153912;1101;103206;-72
2021/07/25 04:46:55;;;;;;;13.33;11.93;;;;;;;21.33;63.85;99931.39;154020;1096;103209;-73
2021/07/25 04:50:07;;;;;;;13.13;11.73;;;;;;;21.47;63.50;99926.61;154009;1101;103195;-72
2021/07/25 04:53:19;;;;;;;14.90;12.03;;;;;;;21.63;63.68;99930.53;153959;1101;103199;-73
2021/07/25 04:56:25;;;;;;;13.60;11.27;;;;;;;21.78;63.50;99932.80;153971;1096;103119;-73
2021/07/25 04:59:32;;;;;;;13.88;11.73;;;;;;;21.92;63.27;99936.95;154026;1101;103290;-73
2021/07/25 05:02:41;;;;;;;16.10;11.67;;;;;;;22.04;63.16;99936.14;153930;1101;103147;-73
2021/07/25 05:05:47;;;;;;;12.43;10.73;;;;;;;22.22;63.32;99933.27;153925;1095;103117;-73
2021/07/25 05:08:53;;;;;;;15.15;11.45;;;;;;;22.40;63.01;99934.22;153949;1101;103613;-71
2021/07/25 05:12:01;;;;;;;12.88;11.35;;;;;;;22.60;62.88;99945.55;153988;1096;103315;-75
2021/07/25 05:15:12;;;;;;;13.78;11.90;;;;;;;22.74;62.74;99944.19;153987;1096;103261;-74
2021/07/25 05:18:21;;;;;;;15.80;11.78;;;;;;;22.87;62.83;99939.56;154089;1101;103205;-74
2021/07/25 05:21:31;;;;;;;14.67;11.07;;;;;;;22.95;62.25;99931.00;154019;1101;103203;-74
2021/07/25 05:24:44;;;;;;;13.93;11.10;;;;;;;23.04;62.46;99932.30;153999;1101;103202;-78
2021/07/25 05:27:52;;;;;;;14.25;10.80;;;;;;;23.10;62.51;99936.77;154011;1094;103195;-76
2021/07/25 05:30:58;;;;;;;11.58;10.35;;;;;;;23.07;62.08;99933.70;153993;1101;103282;-77
2021/07/25 05:34:04;;;;;;;13.05;10.63;;;;;;;22.98;62.21;99932.41;153973;1094;103122;-77
2021/07/25 05:37:09;;;;;;;13.45;10.90;;;;;;;22.96;62.06;99932.67;154050;1096;103187;-76
2021/07/25 05:40:16;;;;;;;12.63;10.90;;;;;;;23.03;62.01;99935.27;154001;1101;103131;-76
2021/07/25 05:43:21;;;;;;;11.97;10.40;;;;;;;23.10;61.79;99925.88;154092;1101;103203;-75
2021/07/25 05:46:26;;;;;;;11.70;10.48;;;;;;;23.20;62.03;99929.87;154001;1100;103358;-74
2021/07/25 05:49:31;;;;;;;14.00;10.67;;;;;;;23.29;61.77;99931.13;154205;1101;103190;-72
2021/07/25 05:52:48;;;;;;;12.03;9.70;;;;;;;23.40;61.95;99930.20;154146;1093;103192;-73
2021/07/25 05:55:53;;;;;;;12.88;10.45;;;;;;;23.53;61.79;99932.62;154142;1094;103131;-76
2021/07/25 05:58:58;;;;;;;11.35;9.78;;;;;;;23.65;61.67;99934.44;154094;1101;103474;-75
2021/07/25 06:02:04;;;;;;;21.67;10.77;;;;;;;23.77;61.58;99934.35;153942;1101;103495;-75
2021/07/25 06:05:10;;;;;;;14.17;10.60;;;;;;;23.82;61.63;99935.30;153998;1094;103127;-75
2021/07/25 06:08:15;;;;;;;11.45;10.25;;;;;;;23.91;61.18;99932.99;153981;1101;103110;-77
2021/07/25 06:11:24;;;;;;;11.60;10.38;;;;;;;23.99;60.93;99934.47;153984;1093;103187;-75
2021/07/25 06:14:29;;;;;;;11.75;10.20;;;;;;;24.02;61.11;99939.41;153965;1094;103102;-77
2021/07/25 06:17:34;;;;;;;11.73;10.53;;;;;;;24.05;60.75;99941.64;154156;1101;103224;-76
2021/07/25 06:20:40;;;;;;;11.10;9.90;;;;;;;24.06;61.24;99944.13;153980;1093;103131;-79
2021/07/25 06:23:46;;;;;;;12.10;10.30;;;;;;;24.10;60.89;99941.73;154014;1101;103144;-78
2021/07/25 06:26:52;;;;;;;10.05;9.13;;;;;;;24.10;60.87;99931.64;153997;1101;103107;-77
2021/07/25 06:29:57;;;;;;;11.55;10.33;;;;;;;24.12;60.86;99928.67;154007;1094;103214;-76
2021/07/25 06:33:03;;;;;;;11.25;10.15;;;;;;;24.13;60.81;99930.30;153967;1093;103259;-76
2021/07/25 06:36:11;;;;;;;13.30;11.30;;;;;;;24.16;60.90;99934.45;154051;1101;103608;-75
2021/07/25 06:39:16;;;;;;;12.48;10.88;;;;;;;24.18;60.27;99930.39;154074;1101;103107;-75
2021/07/25 06:42:21;;;;;;;11.60;10.15;;;;;;;24.21;61.04;99938.08;153959;1101;103188;-77
2021/07/25 06:45:27;;;;;;;10.88;9.78;;;;;;;24.21;60.31;99932.63;153991;1093;103134;-78
2021/07/25 06:48:33;;;;;;;11.83;10.55;;;;;;;24.23;59.88;99927.74;153985;1093;103194;-79
2021/07/25 06:51:40;;;;;;;11.75;9.45;;;;;;;24.25;59.93;99933.77;153969;1096;103142;-75
2021/07/25 06:54:45;;;;;;;11.13;9.67;;;;;;;24.29;59.91;99940.36;153949;1101;103108;-80
2021/07/25 06:57:51;;;;;;;10.60;9.43;;;;;;;24.30;59.86;99941.18;154232;1101;103215;-78
2021/07/25 07:00:56;;;;;;;9.97;8.97;;;;;;;24.35;59.55;99940.44;154046;1101;103176;-78
2021/07/25 07:04:01;;;;;;;10.98;9.50;;;;;;;24.40;60.12;99935.04;153994;1093;103306;-76
2021/07/25 07:07:06;;;;;;;11.30;9.73;;;;;;;24.48;59.90;99937.31;154004;1093;103131;-78
2021/07/25 07:10:13;;;;;;;10.58;9.00;;;;;;;24.54;59.46;99930.91;154049;1101;103144;-79
2021/07/25 07:13:20;;;;;;;9.93;8.93;;;;;;;24.59;59.19;99936.41;153954;1093;103240;-78
2021/07/25 07:16:25;;;;;;;11.98;9.45;;;;;;;24.63;59.51;99926.63;154063;1094;103228;-77
2021/07/25 07:19:30;;;;;;;10.85;9.75;;;;;;;24.71;59.32;99935.45;153998;1101;103563;-74
2021/07/25 07:22:36;;;;;;;9.83;8.68;;;;;;;24.75;59.30;99925.67;154010;1093;103157;-77
2021/07/25 07:25:43;;;;;;;10.13;9.00;;;;;;;24.77;59.25;99923.52;154179;1093;103195;-77
2021/07/25 07:28:48;;;;;;;9.37;8.37;;;;;;;24.84;58.71;99930.42;154223;1101;103128;-78
2021/07/25 07:31:53;;;;;;;9.60;8.53;;;;;;;24.88;58.50;99931.59;154111;1101;103115;-78
2021/07/25 07:34:58;;;;;;;9.50;8.50;;;;;;;24.93;58.81;99928.09;154176;1093;103309;-76
2021/07/25 07:38:04;;;;;;;10.90;8.78;;;;;;;25.03;58.19;99932.83;154042;1101;103200;-78
2021/07/25 07:41:09;;;;;;;9.57;8.57;;;;;;;25.12;58.55;99925.02;154102;1101;103150;-77
2021/07/25 07:44:14;;;;;;;8.53;7.73;;;;;;;25.19;58.61;99926.45;154008;1096;103119;-79
2021/07/25 07:47:19;;;;;;;8.55;7.73;;;;;;;25.28;58.36;99929.56;154273;1101;103132;-80
2021/07/25 07:50:25;;;;;;;10.97;9.17;;;;;;;25.34;58.21;99933.98;154174;1096;103281;-80
2021/07/25 07:53:30;;;;;;;8.93;8.00;;;;;;;25.40;58.18;99924.75;154103;1101;103193;-81
2021/07/25 07:56:36;;;;;;;10.30;8.50;;;;;;;25.47;58.60;99928.09;154298;1101;103261;-79
2021/07/25 07:59:41;;;;;;;10.43;8.75;;;;;;;25.56;58.21;99933.08;154088;1093;103199;-78
2021/07/25 08:02:46;;;;;;;9.00;8.10;;;;;;;25.65;58.38;99939.72;154037;1101;103124;-79
2021/07/25 08:05:51;;;;;;;9.07;8.17;;;;;;;25.72;57.76;99929.40;154275;1093;103125;-81
2021/07/25 08:08:56;;;;;;;9.60;8.60;;;;;;;25.76;57.88;99925.05;154301;1101;103196;-81
2021/07/25 08:12:01;;;;;;;10.10;9.10;;;;;;;25.83;58.02;99922.92;154253;1094;103111;-80
2021/07/25 08:15:07;;;;;;;9.90;8.80;;;;;;;25.92;57.38;99927.92;154197;1094;103132;-79
2021/07/25 08:18:12;;;;;;;10.83;8.35;;;;;;;26.00;57.57;99931.01;154246;1101;103234;-79
2021/07/25 08:21:17;;;;;;;11.20;8.23;;;;;;;26.06;57.43;99926.40;154254;1101;103192;-77
2021/07/25 08:24:22;;;;;;;9.93;8.77;;;;;;;26.12;57.60;99924.52;153993;1101;103579;-79
2021/07/25 08:27:27;;;;;;;9.08;7.90;;;;;;;26.20;56.96;99919.36;153958;1096;103196;-78
2021/07/25 08:30:32;;;;;;;9.43;8.38;;;;;;;26.25;57.08;99922.13;154107;1101;103157;-78
2021/07/25 08:33:37;;;;;;;9.23;8.25;;;;;;;26.28;56.91;99926.23;154101;1093;103160;-77
2021/07/25 08:36:44;;;;;;;9.30;7.95;;;;;;;26.35;56.94;99936.92;154385;1093;103192;-75
2021/07/25 08:39:49;;;;;;;9.63;8.10;;;;;;;26.41;56.90;99931.23;154037;1093;103187;-76
2021/07/25 08:43:05;;;;;;;10.97;7.77;;;;;;;26.49;56.40;99934.56;153972;1101;103238;-76
2021/07/25 08:46:16;;;;;;;8.03;7.23;;;;;;;26.58;56.89;99925.57;154034;1101;103196;-75
2021/07/25 08:49:30;;;;;;;8.70;7.87;;;;;;;26.67;56.47;99934.10;154205;1093;103214;-77
2021/07/25 08:52:36;;;;;;;9.47;7.97;;;;;;;26.73;56.03;99935.77;154300;1101;103225;-77
2021/07/25 08:55:42;;;;;;;9.47;8.20;;;;;;;26.81;56.20;99938.00;154002;1101;103195;-77
2021/07/25 08:58:49;;;;;;;8.85;7.95;;;;;;;26.90;56.14;99938.29;153961;1096;103194;-77
2021/07/25 09:01:59;;;;;;;8.70;7.80;;;;;;;26.98;56.18;99940.52;154161;1096;103166;-77
2021/07/25 09:05:07;;;;;;;7.53;6.88;;;;;;;27.05;55.49;99939.44;153970;1096;103128;-77
2021/07/25 09:08:12;;;;;;;8.27;7.30;;;;;;;27.10;55.19;99937.53;154050;1093;103272;-77
2021/07/25 09:11:19;;;;;;;8.53;7.63;;;;;;;27.18;55.25;99934.26;154012;1101;103195;-77
2021/07/25 09:14:24;;;;;;;9.30;8.13;;;;;;;27.26;54.87;99935.67;154003;1101;103283;-77
2021/07/25 09:17:29;;;;;;;8.15;6.90;;;;;;;27.30;55.23;99928.55;154012;1101;103677;-77
2021/07/25 09:20:36;;;;;;;8.70;7.80;;;;;;;27.34;54.79;99929.64;153995;1101;103131;-77
2021/07/25 09:23:41;;;;;;;7.37;6.67;;;;;;;27.36;54.13;99915.68;153959;1101;103276;-77
2021/07/25 09:26:55;;;;;;;7.80;7.10;;;;;;;27.40;54.06;99931.28;153960;1101;103201;-77
2021/07/25 09:30:18;;;;;;;8.77;7.23;;;;;;;27.44;53.83;99926.09;153994;1101;103226;-77
2021/07/25 09:33:32;;;;;;;9.73;7.33;;;;;;;27.52;53.25;99921.98;153903;1096;103153;-77
2021/07/25 09:36:39;;;;;;;9.03;7.10;;;;;;;27.58;53.02;99926.36;154101;1096;103192;-77
2021/07/25 09:39:46;;;;;;;8.45;6.93;;;;;;;27.65;53.02;99928.84;153949;1101;103289;-77
2021/07/25 09:43:06;;;;;;;9.67;7.13;;;;;;;27.70;52.18;99915.95;154071;1101;103192;-77
2021/07/25 09:46:12;;;;;;;9.20;7.18;;;;;;;27.72;52.07;99921.98;153968;1093;103144;-77
2021/07/25 09:49:19;;;;;;;7.60;6.90;;;;;;;27.77;52.39;99915.66;153971;1091;103184;-76
2021/07/25 09:52:35;;;;;;;7.68;6.88;;;;;;;27.84;51.59;99921.70;154050;1101;103227;-77
2021/07/25 09:55:40;;;;;;;7.68;6.83;;;;;;;27.84;51.38;99916.21;153941;1101;103245;-77
2021/07/25 09:58:46;;;;;;;7.50;6.80;;;;;;;27.86;51.79;99915.94;153982;1101;103113;-77
2021/07/25 10:01:51;;;;;;;7.38;6.68;;;;;;;27.94;51.62;99907.17;153979;1093;103192;-75
2021/07/25 10:05:07;;;;;;;7.27;6.57;;;;;;;28.00;51.42;99917.03;153971;1101;103211;-75
2021/07/25 10:08:17;;;;;;;7.17;6.47;;;;;;;28.07;50.63;99909.34;154038;1101;103179;-76
2021/07/25 10:11:23;;;;;;;7.33;6.63;;;;;;;28.10;49.87;99910.70;154028;1101;103585;-80
2021/07/25 10:14:30;;;;;;;7.18;6.58;;;;;;;28.14;49.91;99907.14;154020;1101;103190;-77
2021/07/25 10:17:36;;;;;;;7.73;6.70;;;;;;;28.22;49.82;99913.17;154270;1101;103125;-77
2021/07/25 10:20:42;;;;;;;8.00;6.98;;;;;;;28.32;49.52;99913.13;154056;1094;103128;-76
2021/07/25 10:23:55;;;;;;;8.57;6.60;;;;;;;28.35;48.80;99907.91;154083;1101;103247;-76
2021/07/25 10:27:01;;;;;;;7.45;5.90;;;;;;;28.38;48.54;99901.84;153994;1101;103221;-77
2021/07/25 10:30:09;;;;;;;6.63;5.97;;;;;;;28.43;48.54;99908.41;154192;1101;103225;-78
2021/07/25 10:33:17;;;;;;;7.10;6.08;;;;;;;28.48;47.41;99900.16;154211;1093;103563;-76
2021/07/25 10:36:24;;;;;;;8.77;7.10;;;;;;;28.52;47.90;99898.52;154030;1101;103231;-76
2021/07/25 10:39:31;;;;;;;6.85;6.15;;;;;;;28.65;47.45;99911.64;154044;1093;103236;-75
2021/07/25 10:42:39;;;;;;;7.10;6.40;;;;;;;28.75;46.55;99908.86;153944;1101;103194;-76
2021/07/25 10:46:04;;;;;;;6.90;6.20;;;;;;;28.81;46.71;99904.14;154013;1101;103221;-74
2021/07/25 10:49:16;;;;;;;8.00;6.90;;;;;;;28.90;46.35;99899.70;153945;1101;103250;-76
2021/07/25 10:52:21;;;;;;;7.77;6.57;;;;;;;28.97;46.46;99897.47;153960;1101;103637;-77
2021/07/25 10:55:47;;;;;;;7.65;6.85;;;;;;;29.02;46.83;99898.53;153962;1093;103218;-75
2021/07/25 10:58:56;;;;;;;7.40;6.70;;;;;;;29.06;46.76;99897.70;154024;1101;103179;-76
2021/07/25 11:02:01;;;;;;;7.73;6.93;;;;;;;29.17;46.97;99907.52;154038;1093;103557;-76
2021/07/25 11:05:09;;;;;;;8.95;6.50;;;;;;;29.27;46.71;99906.62;154041;1093;103219;-76
2021/07/25 11:08:33;;;;;;;7.30;6.60;;;;;;;29.34;46.80;99896.13;153994;1101;103219;-77
2021/07/25 11:11:55;;;;;;;9.30;7.00;;;;;;;29.40;46.60;99898.84;154101;1093;103359;-76
2021/07/25 11:15:04;;;;;;;7.37;6.67;;;;;;;29.38;46.34;99901.06;154090;1094;103547;-76
2021/07/25 11:18:11;;;;;;;9.47;7.17;;;;;;;29.40;46.17;99898.84;154094;1101;103125;-76
2021/07/25 11:21:32;;;;;;;8.43;6.70;;;;;;;29.43;45.97;99896.34;153998;1093;103139;-76
2021/07/25 11:24:41;;;;;;;9.07;7.57;;;;;;;29.50;46.33;99890.51;154313;1101;103102;-77
2021/07/25 11:27:51;;;;;;;8.53;7.70;;;;;;;29.57;46.16;99893.75;154078;1101;103263;-77
2021/07/25 11:31:10;;;;;;;9.00;7.25;;;;;;;29.65;46.07;99895.87;153991;1093;103069;-76
2021/07/25 11:34:27;;;;;;;8.37;7.57;;;;;;;29.60;46.17;99895.94;154027;1101;103229;-79
2021/07/25 11:37:39;;;;;;;7.90;7.10;;;;;;;29.64;45.75;99890.66;153981;1096;103157;-77
2021/07/25 11:40:45;;;;;;;7.90;7.20;;;;;;;29.62;45.94;99896.47;153932;1101;103220;-83
2021/07/25 11:43:59;;;;;;;9.83;7.43;;;;;;;29.59;45.38;99897.03;154073;1101;103272;-81
2021/07/25 11:47:07;;;;;;;8.30;7.50;;;;;;;29.55;45.84;99891.28;154125;1101;103267;-81
2021/07/25 11:50:12;;;;;;;8.25;7.45;;;;;;;29.45;45.31;99888.63;154220;1101;103195;-80
2021/07/25 11:53:17;;;;;;;8.23;7.27;;;;;;;29.27;45.44;99879.14;154147;1101;103189;-81
2021/07/25 11:56:22;;;;;;;9.55;7.58;;;;;;;29.11;45.29;99886.66;154076;1101;103195;-80
2021/07/25 11:59:28;;;;;;;8.60;7.80;;;;;;;28.97;45.45;99886.48;154198;1095;103278;-82
2021/07/25 12:02:36;;;;;;;8.00;7.25;;;;;;;28.88;45.82;99882.69;154161;1096;103128;-82
2021/07/25 12:05:41;;;;;;;8.13;7.30;;;;;;;28.83;45.40;99876.40;154260;1101;103107;-79
2021/07/25 12:09:03;;;;;;;9.13;7.80;;;;;;;28.80;45.17;99875.05;154199;1096;103106;-77
2021/07/25 12:12:11;;;;;;;9.30;7.68;;;;;;;28.83;44.78;99879.14;153969;1101;103166;-74
2021/07/25 12:15:18;;;;;;;7.45;6.75;;;;;;;28.96;45.18;99881.27;154000;1101;103259;-77
2021/07/25 12:18:34;;;;;;;7.80;7.05;;;;;;;29.14;45.08;99877.07;153972;1093;103222;-73
2021/07/25 12:21:39;;;;;;;8.00;7.13;;;;;;;29.37;44.76;99872.77;154098;1101;103116;-73
2021/07/25 12:24:46;;;;;;;7.80;7.10;;;;;;;29.48;44.48;99878.98;154081;1101;103103;-77
2021/07/25 12:28:04;;;;;;;8.13;7.33;;;;;;;29.50;44.27;99868.52;154094;1101;103145;-76
2021/07/25 12:31:13;;;;;;;9.13;7.87;;;;;;;29.52;44.22;99866.30;154861;1101;103349;-77
2021/07/25 12:34:24;;;;;;;8.28;7.13;;;;;;;29.52;43.96;99866.30;153984;1101;103206;-76
2021/07/25 12:37:33;;;;;;;9.97;6.80;;;;;;;29.67;44.34;99870.84;154014;1101;103195;-76
2021/07/25 12:40:48;;;;;;;7.43;6.73;;;;;;;29.79;43.91;99859.48;153964;1096;103243;-76
2021/07/25 12:44:02;;;;;;;7.03;6.33;;;;;;;29.85;43.64;99855.55;153936;1101;103195;-76
2021/07/25 12:47:30;;;;;;;7.83;7.05;;;;;;;29.93;43.64;99861.25;153964;1101;103355;-77
2021/07/25 12:50:52;;;;;;;11.00;9.90;;;;;;;30.08;43.34;99859.42;153974;1101;103230;-74
2021/07/25 12:54:01;;;;;;;8.78;7.98;;;;;;;30.10;43.29;99846.19;154015;1101;103195;-75
2021/07/25 12:57:06;;;;;;;7.50;6.80;;;;;;;30.05;43.04;99844.33;153972;1096;103153;-73
2021/07/25 13:00:13;;;;;;;8.07;6.93;;;;;;;30.00;42.96;99849.88;153933;1096;103217;-75
2021/07/25 13:06:43;;;;;;;7.00;6.20;;;;;;;29.83;42.45;99838.52;153965;1101;103497;-72
2021/07/25 13:09:48;;;;;;;7.33;6.63;;;;;;;29.74;42.23;99827.36;154052;1093;103141;-73
2021/07/25 13:12:53;;;;;;;7.33;6.47;;;;;;;29.70;42.26;99831.77;153985;1101;103125;-74
2021/07/25 13:15:59;;;;;;;7.43;6.40;;;;;;;29.68;42.11;99823.00;153973;1101;103163;-76
2021/07/25 13:19:05;;;;;;;7.60;6.80;;;;;;;29.69;42.21;99822.69;153960;1096;103223;-73
2021/07/25 13:22:10;;;;;;;7.23;6.50;;;;;;;29.68;41.80;99823.81;153977;1096;103293;-73
2021/07/25 13:25:16;;;;;;;7.50;6.80;;;;;;;29.70;41.71;99821.59;154070;1101;103216;-73
2021/07/25 13:28:21;;;;;;;8.38;6.45;;;;;;;29.68;41.61;99826.56;153914;1093;103190;-74
2021/07/25 13:31:26;;;;;;;7.25;6.43;;;;;;;29.67;41.54;99824.91;153953;1094;103200;-73
2021/07/25 13:34:31;;;;;;;7.10;6.40;;;;;;;29.62;40.85;99822.23;153956;1093;103234;-73
2021/07/25 13:37:36;;;;;;;8.38;6.43;;;;;;;29.58;41.12;99826.64;153966;1101;103576;-73
2021/07/25 13:40:41;;;;;;;7.88;6.28;;;;;;;29.58;41.21;99829.39;153932;1101;103130;-74
2021/07/25 13:43:50;;;;;;;7.20;5.78;;;;;;;29.56;40.65;99826.11;153913;1101;103128;-73
2021/07/25 13:46:55;;;;;;;5.93;5.33;;;;;;;29.52;40.81;99825.91;154007;1093;103187;-71
2021/07/25 13:50:00;;;;;;;5.80;5.23;;;;;;;29.54;40.79;99828.34;153982;1093;103257;-73
2021/07/25 13:53:06;;;;;;;5.87;5.27;;;;;;;29.58;40.77;99836.83;154046;1101;103250;-74
2021/07/25 13:56:16;;;;;;;6.23;5.33;;;;;;;29.63;40.65;99837.60;154251;1101;103196;-75
2021/07/25 13:59:21;;;;;;;6.57;5.97;;;;;;;29.65;40.52;99838.13;154045;1093;103221;-74
2021/07/25 14:02:26;;;;;;;6.60;5.73;;;;;;;29.66;40.61;99831.53;154010;1093;103244;-72
2021/07/25 14:05:34;;;;;;;13.15;10.48;;;;;;;29.68;40.76;99836.75;154171;1101;103198;-72
2021/07/25 14:08:38;;;;;;;8.90;7.83;;;;;;;29.68;40.28;99837.56;154083;1093;103278;-72
2021/07/25 14:11:44;;;;;;;13.17;11.77;;;;;;;29.68;40.39;99839.50;154086;1093;103144;-72
2021/07/25 14:14:49;;;;;;;9.47;8.57;;;;;;;29.66;40.33;99831.53;154104;1093;103192;-72